Grand-Sault, Canada
Current Conditions -  °F | °C
As of 12:06 PM on Sunday 21 Dec 2014 (Local Time) from KCAR Reporting Station
Overcast Overcast  
Wind Chill: 15°   Ceiling: 1500
Heat Index: 21°   Visibility: 10mi
Dew Point: 18°   Wind: 5mph
Humidity: 88%   Direction: 250°WSW
Pressure: 30.34"   Gusts: NA
Location:  47.05°N, 67.73°W
Report Text: KCAR 211606Z AUTO 25004KT 10SM FEW008 OVC015 M06/M08 A3034 RMK AO2 T10611078
Loading
Personal Weather Stations






























Interactive Weather Map New forecast layout! Learn more

10-Day Weather Forecast

Advertisements
Track Severe Weather on mobile